createdAt,value
2018-07-23T00:03:50.447Z,99435.52
2018-07-23T00:09:56.003Z,99430.14
2018-07-23T00:16:01.569Z,99430.32
2018-07-23T00:22:07.236Z,99427.25
2018-07-23T00:28:12.831Z,99430.39
2018-07-23T00:34:18.413Z,99438.27
2018-07-23T00:40:23.689Z,99435.02
2018-07-23T00:46:29.151Z,99436.87
2018-07-23T00:52:35.147Z,99441.30
2018-07-23T00:58:40.748Z,99438.31
2018-07-23T01:04:46.310Z,99440.20
2018-07-23T01:10:51.885Z,99437.77
2018-07-23T01:16:57.458Z,99445.36
2018-07-23T01:23:03.013Z,99446.92
2018-07-23T01:29:08.583Z,99446.61
2018-07-23T01:35:14.124Z,99441.87
2018-07-23T01:41:19.725Z,99451.00
2018-07-23T01:47:25.301Z,99450.64
2018-07-23T01:53:30.893Z,99451.84
2018-07-23T01:59:36.515Z,99454.17
2018-07-23T02:05:42.131Z,99449.38
2018-07-23T02:11:47.734Z,99451.94
2018-07-23T02:17:53.301Z,99445.77
2018-07-23T02:23:58.895Z,99455.82
2018-07-23T02:30:04.883Z,99457.73
2018-07-23T02:36:10.455Z,99468.95
2018-07-23T02:42:16.205Z,99462.86
2018-07-23T02:48:21.819Z,99464.23
2018-07-23T02:54:27.428Z,99469.73
2018-07-23T03:00:33.032Z,99470.27
2018-07-23T03:06:38.607Z,99466.39
2018-07-23T03:12:44.160Z,99465.52
2018-07-23T03:18:50.173Z,99469.64
2018-07-23T03:24:55.853Z,99472.09
2018-07-23T03:31:01.480Z,99472.27
2018-07-23T03:37:07.041Z,99478.88
2018-07-23T03:43:12.689Z,99482.03
2018-07-23T03:49:18.267Z,99489.48
2018-07-23T03:55:23.823Z,99498.11
2018-07-23T04:01:29.411Z,99503.84
2018-07-23T04:07:34.989Z,99508.32
2018-07-23T04:13:40.266Z,99506.39
2018-07-23T04:19:45.712Z,99516.02
2018-07-23T04:25:51.307Z,99514.13
2018-07-23T04:32:04.995Z,99521.80
2018-07-23T04:38:11.184Z,99523.23
2018-07-23T04:44:16.771Z,99524.91
2018-07-23T04:50:22.367Z,99522.23
2018-07-23T04:56:27.957Z,99532.39
2018-07-23T05:02:33.532Z,99537.29
2018-07-23T05:08:39.150Z,99539.65
2018-07-23T05:14:44.719Z,99538.98
2018-07-23T05:20:50.297Z,99535.11
2018-07-23T05:26:55.893Z,99532.62
2018-07-23T05:33:01.479Z,99535.30
2018-07-23T05:39:10.317Z,99532.36
2018-07-23T05:45:15.931Z,99534.16
2018-07-23T05:51:21.493Z,99538.88
2018-07-23T05:57:27.104Z,99532.30
2018-07-23T06:03:32.731Z,99542.15
2018-07-23T06:09:38.293Z,99544.80
2018-07-23T06:15:43.864Z,99551.23
2018-07-23T06:21:49.457Z,99554.03
2018-07-23T06:27:55.258Z,99552.55
2018-07-23T06:34:00.857Z,99559.14
2018-07-23T06:40:08.438Z,99558.86
2018-07-23T06:46:14.026Z,99566.83
2018-07-23T06:52:19.621Z,99566.67
2018-07-23T06:58:25.221Z,99566.90
2018-07-23T07:04:30.779Z,99569.24
2018-07-23T07:10:36.357Z,99575.04
2018-07-23T07:16:41.951Z,99571.75
2018-07-23T07:22:47.538Z,99568.54
2018-07-23T07:28:53.144Z,99570.56
2018-07-23T07:34:58.767Z,99577.98
2018-07-23T07:41:04.397Z,99581.67
2018-07-23T07:47:10.044Z,99581.77
2018-07-23T07:53:15.610Z,99569.80
2018-07-23T07:59:21.181Z,99574.31
2018-07-23T08:05:26.761Z,99569.84
2018-07-23T08:11:32.349Z,99561.18
2018-07-23T08:17:37.941Z,99568.11
2018-07-23T08:23:43.510Z,99569.20
2018-07-23T08:29:49.182Z,99564.98
2018-07-23T08:35:55.078Z,99561.31
2018-07-23T08:42:01.665Z,99564.36
2018-07-23T08:48:07.615Z,99566.13
2018-07-23T08:54:13.550Z,99572.07
2018-07-23T09:00:18.981Z,99566.16
2018-07-23T09:06:25.133Z,99573.87
2018-07-23T09:12:30.989Z,99564.70
2018-07-23T09:18:36.889Z,99572.05
2018-07-23T09:24:43.200Z,99568.88
2018-07-23T09:30:51.551Z,99574.16
2018-07-23T09:36:57.350Z,99563.80
2018-07-23T09:43:04.053Z,99555.56
2018-07-23T09:49:10.001Z,99555.77
2018-07-23T09:55:16.010Z,99557.05
2018-07-23T10:01:21.969Z,99557.73
2018-07-23T10:07:27.935Z,99550.15
2018-07-23T10:13:33.967Z,99543.38
2018-07-23T10:19:40.452Z,99548.33
2018-07-23T10:25:46.473Z,99543.19
2018-07-23T10:31:52.557Z,99540.76
2018-07-23T10:37:58.587Z,99532.51
2018-07-23T10:44:04.591Z,99526.76
2018-07-23T10:50:10.633Z,99522.67
2018-07-23T10:56:16.569Z,99520.41
2018-07-23T11:02:22.489Z,99513.26
2018-07-23T11:08:28.419Z,99515.27
2018-07-23T11:14:34.328Z,99516.30
2018-07-23T11:20:40.298Z,99510.20
2018-07-23T11:26:46.367Z,99505.90
2018-07-23T11:32:52.867Z,99504.67
2018-07-23T11:38:58.855Z,99502.18
2018-07-23T11:45:04.904Z,99497.28
2018-07-23T11:51:10.937Z,99502.48
2018-07-23T11:57:16.868Z,99501.07
2018-07-23T12:03:22.878Z,99497.53
2018-07-23T12:09:28.803Z,99498.65
2018-07-23T12:15:34.745Z,99491.12
2018-07-23T12:21:40.813Z,99491.13
2018-07-23T12:27:46.420Z,99478.98
2018-07-23T12:33:52.300Z,99475.67
2018-07-23T12:39:58.330Z,99473.43
2018-07-23T12:46:04.136Z,99469.98
2018-07-23T12:52:10.109Z,99473.07
2018-07-23T12:58:16.150Z,99470.86
2018-07-23T13:04:22.059Z,99461.16
2018-07-23T13:10:28.014Z,99460.17
2018-07-23T13:16:33.989Z,99460.53
2018-07-23T13:22:39.924Z,99458.20
2018-07-23T13:28:45.949Z,99444.44
2018-07-23T13:34:51.888Z,99449.91
2018-07-23T13:40:57.878Z,99445.00
2018-07-23T13:47:03.964Z,99453.59
2018-07-23T13:53:09.997Z,99444.27
2018-07-23T13:59:16.056Z,99441.28
2018-07-23T14:05:22.062Z,99433.03
2018-07-23T14:11:27.850Z,99432.42
2018-07-23T14:17:33.986Z,99431.27
2018-07-23T14:23:39.616Z,99430.04
2018-07-23T14:29:45.689Z,99425.98
2018-07-23T14:35:51.661Z,99417.18
2018-07-23T14:41:57.631Z,99416.63
2018-07-23T14:48:03.785Z,99411.39
2018-07-23T14:54:09.761Z,99406.20
2018-07-23T15:00:15.722Z,99398.32
2018-07-23T15:06:21.600Z,99411.56
2018-07-23T15:12:27.557Z,99409.33
2018-07-23T15:18:33.476Z,99410.80
2018-07-23T15:24:39.438Z,99411.44
2018-07-23T15:30:45.515Z,99411.73
2018-07-23T15:36:51.437Z,99414.47
2018-07-23T15:42:57.385Z,99416.16
2018-07-23T15:49:03.334Z,99408.98
2018-07-23T15:55:09.409Z,99411.97
2018-07-23T16:01:15.278Z,99410.77
2018-07-23T16:07:21.245Z,99419.72
2018-07-23T16:13:27.151Z,99408.89
2018-07-23T16:19:32.932Z,99413.04
2018-07-23T16:25:39.111Z,99409.02
2018-07-23T16:31:45.080Z,99400.56
2018-07-23T16:37:51.011Z,99404.23
2018-07-23T16:43:56.992Z,99404.02
2018-07-23T16:50:02.957Z,99405.53
2018-07-23T16:56:08.927Z,99403.71
2018-07-23T17:02:14.883Z,99403.67
2018-07-23T17:08:20.808Z,99397.15
2018-07-23T17:14:26.695Z,99394.16
2018-07-23T17:20:32.671Z,99401.13
2018-07-23T17:26:38.676Z,99396.34
2018-07-23T17:32:44.446Z,99402.79
2018-07-23T17:38:50.067Z,99413.20
2018-07-23T17:44:55.709Z,99421.77
2018-07-23T17:51:01.546Z,99420.23
2018-07-23T17:57:07.484Z,99421.98
2018-07-23T18:03:13.485Z,99424.22
2018-07-23T18:09:19.384Z,99424.94
2018-07-23T18:15:25.303Z,99428.31
2018-07-23T18:21:31.211Z,99433.85
2018-07-23T18:27:37.035Z,99428.11
2018-07-23T18:33:43.040Z,99428.16
2018-07-23T18:39:48.862Z,99431.89
2018-07-23T18:45:54.535Z,99429.03
2018-07-23T18:52:00.170Z,99440.72
2018-07-23T18:58:05.781Z,99440.37
2018-07-23T19:04:11.825Z,99436.36
2018-07-23T19:10:17.762Z,99448.12
2018-07-23T19:16:23.719Z,99450.95
2018-07-23T19:22:29.826Z,99460.03
2018-07-23T19:28:35.750Z,99465.66
2018-07-23T19:34:41.619Z,99466.22
2018-07-23T19:40:47.599Z,99476.72
2018-07-23T19:46:53.429Z,99479.25
2018-07-23T19:52:59.359Z,99483.41
2018-07-23T19:59:05.309Z,99482.55
2018-07-23T20:05:11.256Z,99487.17
2018-07-23T20:11:17.176Z,99489.52
2018-07-23T20:17:23.107Z,99483.55
2018-07-23T20:23:29.010Z,99489.98
2018-07-23T20:29:34.857Z,99489.77
2018-07-23T20:35:40.377Z,99489.30
2018-07-23T20:41:45.985Z,99493.10
2018-07-23T20:47:51.526Z,99495.92
2018-07-23T20:53:57.088Z,99498.09
2018-07-23T21:00:02.727Z,99499.19
2018-07-23T21:06:09.172Z,99500.55
2018-07-23T21:12:15.106Z,99504.95
2018-07-23T21:18:20.729Z,99501.92
2018-07-23T21:24:26.332Z,99508.72
2018-07-23T21:30:31.953Z,99525.66
2018-07-23T21:36:37.505Z,99526.72
2018-07-23T21:42:43.081Z,99526.23
2018-07-23T21:48:48.958Z,99538.13
2018-07-23T21:54:54.626Z,99530.67
2018-07-23T22:01:00.230Z,99537.13
2018-07-23T22:07:05.873Z,99537.84
2018-07-23T22:13:11.454Z,99541.88
2018-07-23T22:19:17.069Z,99536.17
2018-07-23T22:25:22.676Z,99537.91
2018-07-23T22:31:28.248Z,99538.05
2018-07-23T22:37:33.865Z,99530.41
2018-07-23T22:43:39.446Z,99537.56
2018-07-23T22:49:45.438Z,99535.52
2018-07-23T22:55:51.362Z,99535.17
2018-07-23T23:01:57.203Z,99536.92
2018-07-23T23:08:02.967Z,99526.45
2018-07-23T23:14:08.602Z,99524.31
2018-07-23T23:20:14.253Z,99531.62
2018-07-23T23:26:19.845Z,99536.16
2018-07-23T23:32:25.444Z,99532.66
2018-07-23T23:38:31.085Z,99531.84
2018-07-23T23:44:36.683Z,99521.13
2018-07-23T23:50:42.237Z,99521.30
2018-07-23T23:56:47.783Z,99517.49
